Latest Weather Observations for Double Island Point

IDQ60901

Issued at 3:11 pm EST Tuesday 23 October 2018 (issued every 10 minutes, with the page automatically refreshed every 10 minutes)

About weather observations | Map of Brisbane area stations | Latest observations for Brisbane area | Other Formats
Station Details ID: 040068 Name: DOUBLE ISLAND POINT LIGHTHOUSE Lat: -25.93 Lon: 153.19 Height: 95.64 m
Data from the previous 72 hours. | See also: Recent months at Double Island Point
Date/Time
EST
Temp
°C
App
Temp
°C
Dew
Point
°C
Rel
Hum
%
Delta-T
°C
Wind Press
QNH
hPa
Press
MSL
hPa
Rain since
9am
mm
Dir  Spd
km/h
Gust
km/h
Spd
kts
Gust
kts
23/03:00pm 23.1 21.7 18.8 77 2.7 ESE 24 30 13 16 1014.0 1013.6 0.0
23/02:30pm 23.8 22.6 19.3 76 2.9 SE 24 28 13 15 1014.3 1013.9 0.0
23/02:00pm 23.8 22.3 19.5 77 2.8 SE 26 30 14 16 1014.7 1014.3 0.0
23/01:30pm 23.6 22.3 19.1 76 2.9 SE 24 28 13 15 1015.0 1014.6 0.0
23/01:00pm 24.0 23.0 19.7 77 2.8 SSE 24 28 13 15 1015.4 1015.0 0.0
23/12:30pm 24.0 22.1 19.3 75 3.0 SE 28 30 15 16 1015.7 1015.3 0.0
23/12:00pm 23.8 22.3 19.5 77 2.8 SE 26 30 14 16 1016.1 1015.7 0.0
23/11:30am 24.2 22.5 19.7 76 2.9 SSE 28 30 15 16 1016.5 1016.1 0.0
23/11:00am 23.6 22.0 19.3 77 2.8 SSE 26 32 14 17 1016.9 1016.5 0.0
23/10:30am 23.3 22.6 19.5 79 2.4 SSE 22 30 12 16 1017.2 1016.8 0.0
23/10:00am 23.6 23.4 19.7 79 2.5 S 20 26 11 14 1017.5 1017.1 0.0
23/09:30am 23.2 22.9 19.6 80 2.3 S 20 26 11 14 1017.5 1017.1 0.0
23/09:00am 22.5 22.1 19.3 82 2.0 S 20 26 11 14 1017.4 1017.0 0.2
23/08:30am 22.4 22.1 19.6 84 1.8 S 20 24 11 13 1017.3 1016.9 0.2
23/08:00am 21.9 21.5 19.3 85 1.7 S 20 26 11 14 1017.2 1016.8 0.2
23/07:30am 21.5 20.5 18.9 85 1.6 S 22 30 12 16 1017.0 1016.6 0.2
23/07:00am 22.0 23.0 19.5 86 1.6 S 13 19 7 10 1016.8 1016.4 0.2
23/06:30am 20.9 21.4 19.2 90 1.1 SSW 15 20 8 11 1016.4 1016.0 0.2
23/06:00am 20.5 20.3 18.6 89 1.2 SSW 17 22 9 12 1016.1 1015.7 0.2
23/05:30am 20.4 20.4 18.0 86 1.5 SSE 15 19 8 10 1015.6 1015.2 0.2
23/05:00am 20.5 20.8 17.9 85 1.6 SSE 13 17 7 9 1015.3 1014.9 0.2
23/04:30am 20.7 20.9 18.5 87 1.4 SSE 15 17 8 9 1015.0 1014.6 0.2
23/04:00am 20.6 20.6 18.2 86 1.5 SSE 15 17 8 9 1014.8 1014.4 0.2
23/03:30am 20.6 20.3 18.2 86 1.5 SSE 17 19 9 10 1014.7 1014.3 0.2
23/03:00am 20.6 20.2 18.0 85 1.6 SE 17 20 9 11 1014.8 1014.4 0.2
23/02:30am 20.8 20.1 18.2 85 1.6 SE 19 20 10 11 1014.8 1014.4 0.2
23/02:00am 21.0 20.3 18.2 84 1.7 SE 19 20 10 11 1015.1 1014.7 0.2
23/01:30am 21.2 20.9 18.2 83 1.9 SE 17 20 9 11 1015.4 1015.0 0.2
23/01:00am 21.1 20.2 18.3 84 1.8 SE 20 22 11 12 1015.5 1015.1 0.2
23/12:30am 21.1 20.6 18.7 86 1.5 SE 19 22 10 12 1016.0 1015.6 0.2
23/12:00am 21.2 21.1 18.8 86 1.5 SSE 17 20 9 11 1016.1 1015.7 0.2
 
Date/Time
EST
Temp
°C
App
Temp
°C
Dew
Point
°C
Rel
Hum
%
Delta-T
°C
Wind Press
QNH
hPa
Press
MSL
hPa
Rain since
9am
mm
Dir  Spd
km/h
Gust
km/h
Spd
kts
Gust
kts
22/11:30pm 21.2 21.0 18.6 85 1.6 SE 17 19 9 10 1016.3 1015.9 0.2
22/11:00pm 21.2 21.3 19.1 88 1.3 SE 17 20 9 11 1016.4 1016.0 0.2
22/10:30pm 21.2 20.7 19.1 88 1.3 SE 20 22 11 12 1016.4 1016.0 0.2
22/10:00pm 21.3 20.8 19.2 88 1.3 SE 20 24 11 13 1016.2 1015.8 0.2
22/09:30pm 21.4 20.5 19.1 87 1.5 SE 22 26 12 14 1016.3 1015.9 0.2
22/09:00pm 21.4 20.9 19.0 86 1.5 SE 20 22 11 12 1016.4 1016.0 0.2
22/08:30pm 21.5 21.2 19.2 87 1.5 SE 19 22 10 12 1016.2 1015.8 0.2
22/08:00pm 21.5 21.1 18.9 85 1.6 ESE 19 22 10 12 1016.0 1015.6 0.2
22/07:30pm 21.6 20.6 18.8 84 1.8 ESE 22 26 12 14 1015.6 1015.2 0.2
22/07:00pm 21.6 20.2 18.8 84 1.8 ESE 24 28 13 15 1015.5 1015.1 0.2
22/06:30pm 21.6 19.4 18.6 83 1.9 ESE 28 32 15 17 1015.1 1014.7 0.2
22/06:00pm 21.5 19.6 18.5 83 1.9 ESE 26 32 14 17 1014.8 1014.4 0.2
22/05:30pm 21.7 19.5 18.7 83 1.9 ESE 28 32 15 17 1014.6 1014.2 0.2
22/05:00pm 21.9 19.1 18.3 80 2.3 SE 30 35 16 19 1014.3 1013.9 0.2
22/04:30pm 22.2 19.0 18.2 78 2.5 SE 32 37 17 20 1014.1 1013.7 0.2
22/04:00pm 22.4 19.3 18.4 78 2.5 SE 32 39 17 21 1013.9 1013.5 0.2
22/03:30pm 22.5 19.4 18.5 78 2.5 SE 32 37 17 20 1013.9 1013.5 0.2
22/03:00pm 22.9 19.8 18.4 76 2.8 SE 32 35 17 19 1013.9 1013.5 0.2
22/02:30pm 22.9 20.1 18.2 75 3.0 SE 30 35 16 19 1013.9 1013.5 0.2
22/02:00pm 22.9 20.5 18.2 75 3.0 SE 28 32 15 17 1014.1 1013.7 0.2
22/01:30pm 22.9 20.3 17.8 73 3.2 SE 28 32 15 17 1014.3 1013.9 0.2
22/01:00pm 23.0 20.4 17.7 72 3.3 SSE 28 32 15 17 1014.6 1014.2 0.2
22/12:30pm 22.9 20.4 18.0 74 3.1 SSE 28 32 15 17 1014.8 1014.4 0.2
22/12:00pm 22.7 20.7 17.4 72 3.3 SSE 24 28 13 15 1015.1 1014.7 0.2
22/11:30am 23.0 21.1 17.7 72 3.3 SSE 24 26 13 14 1015.4 1015.0 0.2
22/11:00am 22.9 21.0 17.6 72 3.3 SSE 24 28 13 15 1015.7 1015.3 0.2
22/10:30am 22.6 21.1 17.7 74 3.1 SSE 22 28 12 15 1016.1 1015.7 0.2
22/10:00am 22.3 21.0 18.1 77 2.6 SSE 22 30 12 16 1016.2 1015.8 0.2
22/09:30am 21.5 20.6 18.3 82 2.0 S 20 26 11 14 1016.3 1015.9 0.2
22/09:00am 21.4 20.6 18.4 83 1.9 S 20 26 11 14 1016.2 1015.8 8.6
22/08:30am 21.3 20.9 19.0 87 1.5 S 19 22 10 12 1016.2 1015.8 8.6
22/08:00am 21.0 20.6 18.9 88 1.3 S 19 24 10 13 1016.1 1015.7 8.6
22/07:30am 19.8 19.3 18.6 93 0.8 SSW 19 20 10 11 1016.0 1015.6 8.6
22/07:00am 19.2 18.9 18.2 94 0.6 S 17 22 9 12 1015.8 1015.4 8.6
22/06:30am 18.8 17.4 18.0 95 0.5 SSW 22 24 12 13 1015.7 1015.3 8.6
22/06:00am 18.7 17.8 18.2 97 0.3 S 20 24 11 13 1015.4 1015.0 8.6
22/05:30am 18.8 17.9 18.3 97 0.3 S 20 22 11 12 1015.0 1014.6 8.6
22/05:00am 18.5 18.0 17.9 96 0.4 S 17 19 9 10 1014.6 1014.2 8.6
22/04:30am 18.5 18.4 17.9 96 0.4 S 15 17 8 9 1014.3 1013.9 8.6
22/04:00am 18.9 18.9 18.1 95 0.5 W 15 19 8 10 1014.1 1013.7 8.6
22/03:30am 18.8 19.8 17.8 94 0.6 NW 9 11 5 6 1013.8 1013.4 8.6
22/03:00am 19.5 20.7 18.2 92 0.8 NW 9 11 5 6 1013.6 1013.2 8.6
22/02:30am 19.4 19.9 18.4 94 0.6 NW 13 15 7 8 1013.7 1013.3 8.6
22/02:00am 19.1 19.6 18.4 96 0.4 NW 13 17 7 9 1013.8 1013.4 8.6
22/01:30am 18.9 20.5 18.2 96 0.4 NW 7 9 4 5 1014.0 1013.6 8.6
22/01:00am 19.2 20.1 18.4 95 0.5 NW 11 15 6 8 1014.4 1014.0 8.6
22/12:30am 19.5 18.9 18.8 96 0.4 NNW 20 24 11 13 1014.4 1014.0 8.6
22/12:00am 19.1 18.8 18.3 95 0.5 NNW 17 20 9 11 1014.6 1014.2 8.6
 
Date/Time
EST
Temp
°C
App
Temp
°C
Dew
Point
°C
Rel
Hum
%
Delta-T
°C
Wind Press
QNH
hPa
Press
MSL
hPa
Rain since
9am
mm
Dir  Spd
km/h
Gust
km/h
Spd
kts
Gust
kts
21/11:30pm 18.9 18.9 18.1 95 0.5 NNW 15 20 8 11 1014.8 1014.4 8.6
21/11:00pm 19.0 19.0 18.2 95 0.5 NNE 15 19 8 10 1014.8 1014.4 8.4
21/10:30pm 19.0 18.7 18.2 95 0.5 NW 17 20 9 11 1016.4 1016.0 8.4
21/10:00pm 19.4 22.0 18.4 94 0.6 ENE 2 7 1 4 1016.1 1015.7 7.6
21/09:30pm 19.0 20.6 18.2 95 0.5 ENE 7 11 4 6 1016.3 1015.9 6.4
21/09:00pm 19.0 18.7 18.3 96 0.4 ENE 17 20 9 11 1015.4 1015.0 6.4
21/08:30pm 19.1 19.3 18.6 97 0.3 NE 15 24 8 13 1015.5 1015.1 6.4
21/08:00pm 19.0 18.9 18.7 98 0.2 NE 17 24 9 13 1015.5 1015.1 6.4
21/07:30pm 19.0 20.4 18.7 98 0.2 E 9 11 5 6 1015.1 1014.7 6.4
21/07:00pm 18.8 20.1 18.5 98 0.2 SSE 9 15 5 8 1014.3 1013.9 6.4
21/06:30pm 18.3 19.3 17.8 97 0.3 ESE 9 13 5 7 1014.6 1014.2 6.4
21/06:16pm 18.7 17.4 18.2 97 0.3 S 22 35 12 19 1014.3 1013.9 5.2
21/06:06pm 18.6 13.6 17.9 96 0.4 S 41 59 22 32 1014.5 1014.1 2.4
21/06:00pm 18.1 11.8 17.0 93 0.7 SSE 46 59 25 32 1014.1 1013.7 1.0
21/05:53pm 19.5 16.5 16.7 84 1.7 ENE 28 50 15 27 1013.2 1012.9 0.2
21/05:51pm 21.9 20.4 19.5 86 1.5 NE 26 50 14 27 1013.2 1012.9 0.0
21/05:30pm 22.7 22.8 19.9 84 1.8 NE 19 28 10 15 1012.3 1012.0 0.0
21/05:00pm 22.8 21.3 19.4 81 2.2 NNE 26 33 14 18 1012.0 1011.7 0.0
21/04:30pm 23.8 22.0 19.5 77 2.8 NNE 28 37 15 20 1011.4 1011.1 0.0
21/04:00pm 24.5 21.9 19.8 75 3.0 NNE 33 41 18 22 1011.0 1010.7 0.0
21/03:30pm 25.2 23.5 19.8 72 3.5 NNE 28 37 15 20 1010.7 1010.4 0.0
21/03:00pm 24.7 26.0 20.2 76 2.9 NE 13 22 7 12 1011.2 1010.9 0.0
21/02:30pm 23.8 23.4 19.3 76 2.9 NE 20 28 11 15 1010.9 1010.6 0.0
21/02:00pm 25.6 24.1 19.5 69 3.9 NNE 26 30 14 16 1012.1 1011.8 0.0
21/01:30pm 25.6 25.9 19.5 69 3.9 NNE 17 26 9 14 1013.1 1012.8 0.0
21/01:00pm 25.7 25.3 19.3 67 4.1 NNE 20 26 11 14 1013.6 1013.2 0.0
21/12:30pm 27.1 27.4 19.7 64 4.8 N 17 26 9 14 1014.1 1013.7 0.0
21/12:00pm 26.0 27.4 21.0 74 3.3 NNW 15 20 8 11 1014.9 1014.5 0.0
21/11:30am 23.7 23.3 18.1 71 3.5 NNW 17 26 9 14 1015.1 1014.7 0.0
21/11:00am 24.9 25.9 19.5 72 3.5 N 13 20 7 11 1015.0 1014.6 0.0
21/10:30am 23.3 23.6 18.8 76 2.9 NNW 15 20 8 11 1015.4 1015.0 0.0
21/10:00am 22.5 21.3 18.3 77 2.6 NNW 22 32 12 17 1015.9 1015.5 0.0
21/09:30am 22.9 19.9 18.7 77 2.7 NNW 32 39 17 21 1015.7 1015.3 0.0
21/09:00am 21.7 20.7 17.9 79 2.4 NNW 20 26 11 14 1015.1 1014.7 0.0
21/08:30am 21.9 22.3 17.3 75 2.8 WNW 11 17 6 9 1014.9 1014.5 0.0
21/08:00am 21.1 19.9 17.1 78 2.5 W 19 26 10 14 1015.1 1014.7 0.0
21/07:30am 20.4 19.2 17.4 83 1.8 WNW 20 33 11 18 1015.7 1015.3 0.0
21/07:00am 20.7 19.6 18.6 88 1.3 NW 22 37 12 20 1015.3 1014.9 0.0
21/06:30am 20.5 22.4 18.6 89 1.2 NNE 6 11 3 6 1014.6 1014.2 0.0
21/06:00am 20.1 21.7 18.2 89 1.2 NNW 7 13 4 7 1013.9 1013.5 0.0
21/05:30am 20.0 20.0 18.0 88 1.2 NNW 15 19 8 10 1014.5 1014.1 0.0
21/05:00am 19.7 20.2 17.5 87 1.4 NW 11 15 6 8 1015.1 1014.7 0.0
21/04:30am 19.9 19.6 17.3 85 1.6 W 15 20 8 11 1015.8 1015.4 0.0
21/04:00am 20.0 20.2 17.6 86 1.5 W 13 20 7 11 1015.9 1015.5 0.0
21/03:30am 19.5 18.4 17.3 87 1.3 WSW 19 24 10 13 1016.0 1015.6 0.0
21/03:00am 19.6 19.8 17.6 88 1.2 WSW 13 22 7 12 1015.6 1015.2 0.0
21/02:30am 20.1 19.7 18.1 88 1.2 WNW 17 20 9 11 1015.3 1014.9 0.0
21/02:00am 20.0 19.6 18.0 88 1.2 NW 17 20 9 11 1015.1 1014.7 0.0
21/01:30am 20.2 20.2 18.0 87 1.4 NW 15 17 8 9 1015.1 1014.7 0.0
21/01:00am 20.5 21.5 17.7 84 1.7 N 9 19 5 10 1015.3 1014.9 0.0
21/12:30am 20.4 21.9 17.6 84 1.7 NNE 6 9 3 5 1015.2 1014.8 0.0
21/12:00am 20.5 22.0 17.5 83 1.8 NNE 6 11 3 6 1015.2 1014.8 0.0
 
Date/Time
EST
Temp
°C
App
Temp
°C
Dew
Point
°C
Rel
Hum
%
Delta-T
°C
Wind Press
QNH
hPa
Press
MSL
hPa
Rain since
9am
mm
Dir  Spd
km/h
Gust
km/h
Spd
kts
Gust
kts
20/11:30pm 20.7 21.7 17.7 83 1.9 N 9 19 5 10 1015.5 1015.1 0.0
20/11:00pm 20.9 20.4 17.7 82 2.0 N 17 26 9 14 1015.6 1015.2 0.0
20/10:30pm 20.7 20.6 17.9 84 1.7 NNE 15 24 8 13 1016.0 1015.6 0.0
20/10:00pm 20.7 19.9 17.9 84 1.7 NNE 19 22 10 12 1016.0 1015.6 0.0
20/09:30pm 20.5 20.3 17.7 84 1.7 NE 15 20 8 11 1016.1 1015.7 0.0
20/09:00pm 20.5 20.6 17.5 83 1.8 NE 13 20 7 11 1016.0 1015.6 0.0
20/08:30pm 20.7 20.8 17.5 82 2.0 NE 13 19 7 10 1016.3 1015.9 0.0
20/08:00pm 20.9 20.6 17.3 80 2.2 NE 15 20 8 11 1015.9 1015.5 0.0
20/07:30pm 21.0 20.7 17.4 80 2.2 ENE 15 20 8 11 1015.8 1015.4 0.0
20/07:00pm 21.1 20.8 17.3 79 2.3 ENE 15 20 8 11 1015.6 1015.2 0.0
20/06:30pm 21.2 20.4 17.0 77 2.6 ENE 17 20 9 11 1015.1 1014.7 0.0
20/06:00pm 21.4 20.4 16.6 74 2.9 NE 17 22 9 12 1014.8 1014.4 0.0
20/05:30pm 21.9 20.8 16.4 71 3.3 ENE 17 20 9 11 1014.7 1014.3 0.0
20/05:00pm 22.3 21.3 16.6 70 3.5 ENE 17 20 9 11 1014.6 1014.2 0.0
20/04:30pm 22.9 22.5 17.1 70 3.6 ENE 15 19 8 10 1014.8 1014.4 0.0
20/04:00pm 22.8 22.2 16.6 68 3.8 ENE 15 19 8 10 1014.8 1014.4 0.0
20/03:30pm 23.6 23.2 17.1 67 4.0 E 15 17 8 9 1014.9 1014.5 0.0

Latest Capital City Observations: Canberra | Sydney | Melbourne | Brisbane | Adelaide | Perth | Hobart | Darwin

Other Formats:

Comma delimited format used in spreadsheet applications
http://www.bom.gov.au/fwo/IDQ60901/IDQ60901.94584.axf

JavaScript Object Notation format (JSON) in row-major order
http://www.bom.gov.au/fwo/IDQ60901/IDQ60901.94584.json